Time;durP1;ratioP1;P1;durP2;ratioP2;P2;SDS_P1;SDS_P2;PMS_P1;PMS_P2;Temp;Humidity;BMP_temperature;BMP_pressure;BME280_temperature;BME280_humidity;BME280_pressure;Samples;Min_cycle;Max_cycle;Signal;HPM_P1;HPM_P2
2021/06/06 00:00:43;;;;;;;36.47;27.37;;;19.90;99.90;;;20.09;60.69;101857.16;4928566;28;97889;-58
2021/06/06 00:03:40;;;;;;;35.33;26.40;;;20.00;99.90;;;20.09;60.31;101870.56;4929586;28;104285;-58
2021/06/06 00:06:07;;;;;;;36.80;27.90;;;20.00;99.90;;;20.01;60.82;101865.66;4938046;28;97494;-58
2021/06/06 00:08:33;;;;;;;36.70;27.57;;;19.90;99.90;;;19.96;61.00;101866.84;4947123;28;98374;-62
2021/06/06 00:11:35;;;;;;;34.33;26.53;;;19.80;99.90;;;20.00;60.81;101873.78;4935034;28;100308;-58
2021/06/06 00:14:06;;;;;;;37.00;27.40;;;19.80;99.90;;;19.97;60.76;101874.81;4886591;28;103509;-56
2021/06/06 00:16:46;;;;;;;37.23;26.53;;;19.80;99.90;;;19.97;59.91;101877.47;4909929;28;97491;-62
2021/06/06 00:19:14;;;;;;;34.30;26.80;;;19.90;99.90;;;19.96;61.01;101877.53;4914128;28;99157;-56
2021/06/06 00:21:41;;;;;;;39.00;28.17;;;19.80;99.90;;;19.93;60.54;101883.94;4958715;28;100145;-57
2021/06/06 00:24:10;;;;;;;35.60;27.73;;;19.80;99.90;;;19.94;60.66;101876.78;4946486;28;97956;-56
2021/06/06 00:26:38;;;;;;;33.80;27.20;;;19.80;99.90;;;19.90;61.01;101871.59;4933139;28;102418;-55
2021/06/06 00:29:05;;;;;;;35.77;26.93;;;19.70;99.90;;;19.96;60.84;101878.41;4934339;28;98763;-57
2021/06/06 00:31:31;;;;;;;35.00;26.50;;;19.80;99.90;;;19.98;60.05;101878.34;4961158;28;97387;-57
2021/06/06 00:33:57;;;;;;;36.23;26.93;;;19.90;99.90;;;19.98;60.00;101881.03;4930479;28;102087;-57
2021/06/06 00:36:23;;;;;;;34.10;27.40;;;19.90;99.90;;;20.05;60.37;101882.41;4960746;28;97422;-57
2021/06/06 00:38:49;;;;;;;34.90;27.23;;;19.90;99.90;;;19.97;60.49;101880.16;4959486;28;97495;-56
2021/06/06 00:41:18;;;;;;;34.53;26.67;;;19.90;99.90;;;19.94;60.30;101883.00;4944977;28;97473;-58
2021/06/06 00:43:46;;;;;;;34.80;27.50;;;19.90;99.90;;;20.00;59.84;101885.34;4942761;28;99894;-57
2021/06/06 00:46:16;;;;;;;35.87;27.37;;;19.90;99.90;;;20.05;60.52;101887.75;4927892;28;97574;-58
2021/06/06 00:48:42;;;;;;;37.73;28.57;;;19.90;99.90;;;20.06;60.31;101884.13;4928584;28;97539;-57
2021/06/06 00:51:39;;;;;;;35.90;28.27;;;19.90;99.90;;;20.05;60.22;101877.03;4929872;28;99651;-58
2021/06/06 00:54:15;;;;;;;37.17;27.40;;;19.90;99.90;;;20.00;60.15;101887.16;4925424;28;101297;-58
2021/06/06 00:56:46;;;;;;;39.40;29.13;;;19.90;99.90;;;19.97;60.67;101885.53;4922418;28;97604;-58
2021/06/06 00:59:16;;;;;;;35.30;26.83;;;19.80;99.90;;;19.95;60.53;101873.13;4947201;28;99145;-57
2021/06/06 01:01:42;;;;;;;40.23;31.53;;;19.80;99.90;;;19.95;60.34;101887.38;4923353;28;97691;-57
2021/06/06 01:04:08;;;;;;;40.57;32.47;;;19.80;99.90;;;19.99;60.43;101882.75;4933630;28;98813;-57
2021/06/06 01:06:47;;;;;;;43.00;36.00;;;19.80;99.90;;;20.05;60.09;101883.25;4926381;28;99460;-58
2021/06/06 01:09:17;;;;;;;43.83;35.23;;;19.90;99.90;;;20.02;60.04;101879.91;4934473;28;97297;-58
2021/06/06 01:12:13;;;;;;;38.47;33.10;;;19.90;99.90;;;19.95;60.84;101886.53;4923298;28;99615;-57
2021/06/06 01:15:00;;;;;;;31.37;25.07;;;19.70;99.90;;;19.94;60.75;101874.09;4929357;28;100013;-58
2021/06/06 01:17:50;;;;;;;35.63;27.37;;;19.60;99.90;;;19.96;60.53;101877.53;4912375;28;97329;-58
2021/06/06 01:20:28;;;;;;;32.03;25.37;;;19.70;99.90;;;19.96;59.79;101877.53;4928388;28;97883;-57
2021/06/06 01:23:06;;;;;;;31.33;23.07;;;19.80;99.90;;;19.92;60.44;101876.84;4926597;28;98647;-55
2021/06/06 01:25:45;;;;;;;27.47;20.97;;;19.60;99.90;;;19.95;60.32;101870.47;4929815;28;100455;-58
2021/06/06 01:28:42;;;;;;;23.57;20.00;;;19.70;99.90;;;19.92;60.38;101876.84;4939825;28;101065;-58
2021/06/06 01:31:10;;;;;;;24.90;19.57;;;19.70;99.90;;;19.91;60.56;101867.97;4940501;28;101004;-57
2021/06/06 01:33:49;;;;;;;22.20;18.60;;;19.70;99.90;;;19.92;60.29;101871.50;4925647;28;97775;-58
2021/06/06 01:36:24;;;;;;;23.17;19.50;;;19.70;99.90;;;19.92;59.51;101867.00;4930616;28;97489;-57
2021/06/06 01:38:59;;;;;;;24.57;20.17;;;19.80;99.90;;;19.94;60.45;101863.38;4952524;28;99082;-58
2021/06/06 01:41:36;;;;;;;25.90;21.10;;;19.80;99.90;;;19.88;60.49;101865.47;4927611;28;97893;-57
2021/06/06 01:44:10;;;;;;;25.77;21.83;;;19.70;99.90;;;19.84;60.68;101863.91;4922724;28;104863;-58
2021/06/06 01:46:53;;;;;;;26.70;22.63;;;19.60;99.90;;;19.82;60.85;101860.47;4925543;28;98591;-58
2021/06/06 01:49:21;;;;;;;27.50;22.13;;;19.50;99.90;;;19.83;60.90;101866.69;4943396;28;97525;-57
2021/06/06 01:51:54;;;;;;;24.50;21.13;;;19.50;99.90;;;19.83;60.80;101864.00;4923025;28;101203;-57
2021/06/06 01:54:24;;;;;;;24.33;20.50;;;19.60;99.90;;;19.79;60.52;101865.97;4926832;28;97274;-55
2021/06/06 01:56:52;;;;;;;25.57;20.43;;;19.50;99.90;;;19.83;60.64;101862.19;4906202;28;98274;-56
2021/06/06 01:59:38;;;;;;;28.63;22.90;;;19.60;99.90;;;19.80;60.40;101862.31;4924316;28;98246;-57
2021/06/06 02:02:05;;;;;;;28.93;23.47;;;19.60;99.90;;;19.77;60.86;101867.84;4940538;28;98811;-58
2021/06/06 02:04:34;;;;;;;28.63;23.03;;;19.50;99.90;;;19.70;60.40;101869.16;4925093;28;99590;-57
2021/06/06 02:07:18;;;;;;;27.77;22.63;;;19.50;99.90;;;19.67;60.55;101865.75;4919655;28;103573;-57
2021/06/06 02:09:52;;;;;;;27.30;22.17;;;19.40;99.90;;;19.73;60.67;101863.63;4921885;28;99058;-58
2021/06/06 02:12:18;;;;;;;29.10;22.73;;;19.50;99.90;;;19.77;60.57;101856.28;4924725;28;98705;-58
2021/06/06 02:14:47;;;;;;;27.40;22.23;;;19.60;99.90;;;19.74;60.75;101849.28;4919805;28;98108;-56
2021/06/06 02:17:26;;;;;;;25.63;21.37;;;19.60;99.90;;;19.81;60.62;101858.69;4912665;28;98284;-56
2021/06/06 02:19:52;;;;;;;29.70;22.93;;;19.60;99.90;;;19.71;60.52;101862.84;4921274;28;97725;-57
2021/06/06 02:22:18;;;;;;;27.50;21.90;;;19.60;99.90;;;19.76;60.65;101858.09;4924031;28;97706;-58
2021/06/06 02:24:45;;;;;;;28.03;22.43;;;19.60;99.90;;;19.78;60.79;101863.38;4919732;28;99010;-58
2021/06/06 02:27:52;;;;;;;27.90;21.50;;;19.60;99.90;;;19.80;60.42;101856.97;4922911;28;99241;-57
2021/06/06 02:30:33;;;;;;;21.57;18.00;;;19.60;99.90;;;19.82;60.15;101865.81;4867617;28;100998;-58
2021/06/06 02:33:09;;;;;;;26.20;21.33;;;19.60;99.90;;;19.77;60.74;101862.50;4885283;28;98019;-58
2021/06/06 02:36:05;;;;;;;26.73;21.10;;;19.60;99.90;;;19.81;60.13;101866.72;4915206;28;97912;-58
2021/06/06 02:38:51;;;;;;;23.87;20.53;;;19.60;99.90;;;19.76;60.46;101865.28;4903546;28;99080;-57
2021/06/06 02:41:29;;;;;;;25.47;20.10;;;19.60;99.90;;;19.75;60.82;101859.06;4901649;28;99790;-57
2021/06/06 02:44:05;;;;;;;24.53;19.93;;;19.60;99.90;;;19.77;60.60;101857.16;4903494;28;97592;-58
2021/06/06 02:46:34;;;;;;;26.37;20.07;;;19.60;99.90;;;19.80;60.45;101862.31;4939730;28;101383;-58
2021/06/06 02:49:10;;;;;;;27.20;21.23;;;19.60;99.90;;;19.80;60.55;101862.31;4921752;28;101059;-56
2021/06/06 02:51:48;;;;;;;26.73;20.37;;;19.60;99.90;;;19.77;60.50;101862.50;4920700;28;98129;-58
2021/06/06 02:54:32;;;;;;;27.30;22.37;;;19.60;99.90;;;19.75;60.69;101864.41;4924389;28;98197;-58
2021/06/06 02:57:07;;;;;;;25.97;20.60;;;19.50;99.90;;;19.72;60.70;101858.38;4904547;28;101982;-55
2021/06/06 02:59:46;;;;;;;24.90;20.47;;;19.50;99.90;;;19.71;60.69;101862.84;4940838;28;99326;-57
2021/06/06 03:02:16;;;;;;;26.83;20.23;;;19.50;99.90;;;19.71;60.85;101857.50;4922647;28;96995;-57
2021/06/06 03:04:51;;;;;;;26.70;20.23;;;19.50;99.90;;;19.73;60.76;101855.59;4906639;28;99406;-57
2021/06/06 03:07:28;;;;;;;22.63;19.97;;;19.60;99.90;;;19.69;60.55;101859.41;4942707;28;99869;-58
2021/06/06 03:09:53;;;;;;;24.67;20.10;;;19.50;99.90;;;19.63;60.31;101854.38;4923121;28;98085;-58
2021/06/06 03:12:21;;;;;;;28.53;21.53;;;19.50;99.90;;;19.65;60.84;101857.81;4957303;28;99670;-57
2021/06/06 03:14:49;;;;;;;25.97;20.47;;;19.50;99.90;;;19.67;59.91;101858.59;4921714;28;97413;-58
2021/06/06 03:17:46;;;;;;;23.93;20.17;;;19.60;99.90;;;19.70;60.63;101855.78;4938587;28;100394;-56
2021/06/06 03:20:34;;;;;;;24.77;19.57;;;19.50;99.90;;;19.70;60.53;101855.78;4937796;28;103222;-54
2021/06/06 03:23:01;;;;;;;24.07;19.90;;;19.50;99.90;;;19.69;60.61;101861.22;4910088;28;98303;-57
2021/06/06 03:25:50;;;;;;;23.53;20.10;;;19.60;99.90;;;19.79;60.54;101860.59;4935606;28;97845;-57
2021/06/06 03:28:21;;;;;;;23.63;20.03;;;19.60;99.90;;;19.77;60.20;101862.50;4932254;28;104372;-57
2021/06/06 03:30:54;;;;;;;24.57;19.03;;;19.60;99.90;;;19.71;59.91;101857.50;4937938;28;99297;-56
2021/06/06 03:33:44;;;;;;;23.53;19.27;;;19.60;99.90;;;19.77;60.31;101867.84;4941033;28;96898;-57
2021/06/06 03:36:12;;;;;;;23.40;20.40;;;19.60;99.90;;;19.77;60.39;101867.84;4947344;28;97832;-57
2021/06/06 03:38:38;;;;;;;24.10;18.27;;;19.60;99.90;;;19.80;60.26;101867.69;4948227;28;97912;-55
2021/06/06 03:41:05;;;;;;;22.13;19.53;;;19.60;99.90;;;19.79;60.37;101860.59;4954660;28;98357;-56
2021/06/06 03:43:30;;;;;;;27.13;20.77;;;19.60;99.90;;;19.78;60.10;101858.88;4951951;28;96871;-57
2021/06/06 03:45:56;;;;;;;24.07;20.23;;;19.60;99.90;;;19.79;60.19;101855.25;4947946;28;96948;-55
2021/06/06 03:48:22;;;;;;;23.93;21.17;;;19.60;99.90;;;19.72;60.49;101861.03;4936766;28;101859;-58
2021/06/06 03:50:51;;;;;;;24.80;21.67;;;19.50;99.90;;;19.72;60.32;101853.88;4947412;28;99553;-58
2021/06/06 03:53:20;;;;;;;25.57;21.03;;;19.50;99.90;;;19.73;60.28;101858.28;4948581;28;97203;-58
2021/06/06 03:55:47;;;;;;;26.50;21.00;;;19.50;99.90;;;19.77;60.19;101862.50;4943475;28;96963;-58
2021/06/06 03:58:14;;;;;;;25.17;22.20;;;19.50;99.90;;;19.70;60.29;101858.44;4950567;28;101904;-58
2021/06/06 04:00:46;;;;;;;29.93;22.33;;;19.50;99.90;;;19.77;60.57;101857.16;4951248;28;99910;-58
2021/06/06 04:03:12;;;;;;;31.17;23.87;;;19.50;99.90;;;19.72;60.56;101861.91;4948022;28;97186;-57
2021/06/06 04:05:39;;;;;;;27.47;21.47;;;19.40;99.90;;;19.74;60.37;101851.09;4952019;28;97258;-58
2021/06/06 04:08:07;;;;;;;26.93;21.87;;;19.40;99.90;;;19.75;60.47;101853.69;4967198;28;100240;-57
2021/06/06 04:10:34;;;;;;;28.20;22.10;;;19.50;99.90;;;19.73;60.61;101844.88;4986656;28;97567;-58
2021/06/06 04:13:00;;;;;;;25.13;21.80;;;19.40;99.90;;;19.72;60.76;101847.66;4947522;28;98186;-58
2021/06/06 04:15:26;;;;;;;25.20;22.50;;;19.40;99.90;;;19.67;60.81;101845.22;4945954;28;97043;-58
2021/06/06 04:17:52;;;;;;;27.53;21.60;;;19.40;99.90;;;19.70;60.51;101850.41;4941962;28;98047;-58
2021/06/06 04:20:22;;;;;;;25.27;22.50;;;19.40;99.90;;;19.69;60.82;101845.16;4963455;28;96864;-58
2021/06/06 04:22:47;;;;;;;27.03;22.73;;;19.40;99.90;;;19.67;60.63;101849.69;4940860;28;96829;-58
2021/06/06 04:25:16;;;;;;;26.90;21.90;;;19.40;99.90;;;19.67;60.82;101844.34;4961613;28;102744;-58
2021/06/06 04:27:43;;;;;;;26.97;23.07;;;19.40;99.90;;;19.61;61.08;101851.78;4945235;28;100096;-58
2021/06/06 04:30:11;;;;;;;28.67;22.57;;;19.30;99.90;;;19.64;60.89;101848.06;4956106;28;99611;-58
2021/06/06 04:32:38;;;;;;;24.23;21.13;;;19.40;99.90;;;19.64;60.93;101856.09;4929529;28;97664;-58
2021/06/06 04:35:05;;;;;;;26.40;22.73;;;19.40;99.90;;;19.55;61.50;101856.63;4929900;28;97334;-58
2021/06/06 04:37:31;;;;;;;26.27;21.13;;;19.20;99.90;;;19.55;61.23;101861.97;4932336;28;96976;-58
2021/06/06 04:39:56;;;;;;;25.03;21.07;;;19.20;99.90;;;19.58;61.24;101856.44;4925578;28;103915;-58
2021/06/06 04:42:22;;;;;;;25.27;22.67;;;19.30;99.90;;;19.57;61.19;101858.25;4949095;28;97135;-58
2021/06/06 04:44:50;;;;;;;25.07;21.97;;;19.30;99.90;;;19.58;61.17;101867.16;4924572;28;96927;-58
2021/06/06 04:47:17;;;;;;;25.83;21.93;;;19.30;99.90;;;19.54;61.31;101860.22;4950570;28;97607;-58
2021/06/06 04:49:45;;;;;;;26.57;23.00;;;19.30;99.90;;;19.56;61.21;101863.69;4932468;28;98376;-56
2021/06/06 04:52:14;;;;;;;25.83;23.20;;;19.20;99.90;;;19.56;61.24;101864.56;4951027;28;97028;-58
2021/06/06 04:54:40;;;;;;;24.43;21.93;;;19.30;99.90;;;19.55;61.23;101862.84;4945230;28;97378;-58
2021/06/06 04:57:07;;;;;;;26.20;21.97;;;19.20;99.90;;;19.63;60.78;101862.41;5353861;22;97692;-62
2021/06/06 05:02:11;;;;;;;26.67;23.87;;;19.30;99.90;;;19.57;61.02;101865.41;5449199;22;99396;-49
2021/06/06 05:04:40;;;;;;;27.70;23.40;;;19.30;99.90;;;19.61;60.82;101861.63;4952855;28;100679;-49
2021/06/06 05:07:06;;;;;;;26.73;23.63;;;19.40;99.90;;;19.63;61.12;101862.41;4977791;28;98876;-49
2021/06/06 05:09:32;;;;;;;27.33;23.17;;;19.40;99.90;;;19.65;60.90;101862.31;4971887;28;96724;-48
2021/06/06 05:11:58;;;;;;;28.00;23.83;;;19.40;99.90;;;19.58;61.28;101870.69;4969563;28;97428;-49
2021/06/06 05:14:24;;;;;;;28.87;24.80;;;19.30;99.90;;;19.58;61.39;101867.16;4982484;28;96894;-48
2021/06/06 05:16:50;;;;;;;29.03;24.50;;;19.30;99.90;;;19.58;61.41;101864.47;4961305;28;100379;-50
2021/06/06 05:19:15;;;;;;;27.67;23.67;;;19.20;99.90;;;19.59;61.16;101874.22;4967141;28;97123;-47
2021/06/06 05:21:41;;;;;;;27.67;24.67;;;19.30;99.90;;;19.55;61.79;101867.31;4962189;28;96890;-48
2021/06/06 05:24:07;;;;;;;31.87;26.40;;;19.20;99.90;;;19.51;62.01;101876.41;4986146;28;96475;-48
2021/06/06 05:26:35;;;;;;;33.10;26.93;;;19.20;99.90;;;19.56;61.48;101874.41;4968488;28;97473;-51
2021/06/06 05:29:01;;;;;;;29.13;26.03;;;19.20;99.90;;;19.60;61.14;101881.31;4945522;28;99048;-50
2021/06/06 05:31:27;;;;;;;29.87;25.93;;;19.30;99.90;;;19.62;60.95;101874.06;4966940;28;97382;-51
2021/06/06 05:33:52;;;;;;;31.80;25.80;;;19.40;99.90;;;19.66;61.01;101880.97;4962636;28;98144;-51
2021/06/06 05:36:18;;;;;;;32.27;26.90;;;19.40;99.90;;;19.67;60.87;101871.97;4970399;28;98696;-50
2021/06/06 05:38:44;;;;;;;36.97;28.37;;;19.40;99.90;;;19.58;61.79;101884.06;4956115;28;103192;-48
2021/06/06 05:41:11;;;;;;;30.83;27.27;;;19.30;99.90;;;19.54;61.53;101878.94;4984600;28;97076;-49
2021/06/06 05:43:38;;;;;;;36.93;28.17;;;19.20;99.90;;;19.50;61.91;101880.03;4978366;28;98406;-49
2021/06/06 05:46:16;;;;;;;31.83;28.43;;;19.10;99.90;;;19.53;61.83;101880.75;4986368;28;97702;-49
2021/06/06 05:48:43;;;;;;;34.67;28.03;;;19.20;99.90;;;19.56;61.52;101890.44;4958135;28;98110;-50
2021/06/06 05:51:09;;;;;;;34.10;27.90;;;19.20;99.90;;;19.58;61.10;101884.06;4963428;28;101619;-51
2021/06/06 05:53:36;;;;;;;32.30;27.97;;;19.30;99.90;;;19.57;61.50;101886.81;4964940;28;96849;-49
2021/06/06 05:56:05;;;;;;;33.27;28.27;;;19.30;99.90;;;19.55;61.61;101883.38;4971206;28;97246;-48
2021/06/06 05:58:31;;;;;;;36.13;30.93;;;19.20;99.90;;;19.58;61.37;101886.75;4966928;28;98262;-50
2021/06/06 06:00:58;;;;;;;37.67;29.97;;;19.30;99.90;;;19.52;61.83;101888.84;4967615;28;96877;-52
2021/06/06 06:03:24;;;;;;;40.33;30.60;;;19.20;99.90;;;19.49;61.91;101883.66;4982289;28;97866;-49
2021/06/06 06:05:51;;;;;;;37.83;30.63;;;19.10;99.90;;;19.52;61.48;101888.84;4968031;28;96712;-48
2021/06/06 06:08:28;;;;;;;36.20;30.40;;;19.20;99.90;;;19.53;61.43;101885.25;4965632;28;97416;-47
2021/06/06 06:10:56;;;;;;;34.53;29.87;;;19.20;99.90;;;19.48;61.76;101892.63;4969340;28;97136;-51
2021/06/06 06:13:26;;;;;;;33.00;29.40;;;19.20;99.90;;;19.54;61.57;101898.56;4968385;28;96972;-48
2021/06/06 06:15:53;;;;;;;38.23;31.37;;;19.30;99.90;;;19.56;61.22;101901.16;4966734;28;97787;-48
2021/06/06 06:18:23;;;;;;;38.30;31.33;;;19.30;99.90;;;19.49;61.96;101902.38;4987065;28;98425;-50
2021/06/06 06:20:51;;;;;;;41.13;32.07;;;19.20;99.90;;;19.50;62.00;101901.44;4966220;28;97655;-48
2021/06/06 06:23:18;;;;;;;37.10;30.63;;;19.20;99.90;;;19.55;61.70;101894.94;4971604;28;97443;-50
2021/06/06 06:25:44;;;;;;;38.30;31.50;;;19.20;99.90;;;19.50;61.78;101896.94;4969359;28;97731;-48
2021/06/06 06:28:11;;;;;;;36.13;31.03;;;19.20;99.90;;;19.49;62.32;101895.22;4970630;28;98021;-48
2021/06/06 06:30:39;;;;;;;36.13;28.63;;;19.20;99.90;;;19.49;61.76;101899.72;4960222;28;96975;-48
2021/06/06 06:33:07;;;;;;;35.10;28.87;;;19.20;99.90;;;19.49;61.75;101899.72;4987127;28;97834;-48
2021/06/06 06:35:34;;;;;;;37.23;29.70;;;19.20;99.90;;;19.47;61.74;101896.25;4968303;28;96826;-49
2021/06/06 06:38:01;;;;;;;40.77;30.80;;;19.20;99.90;;;19.42;61.92;101895.66;4959941;28;100093;-49
2021/06/06 06:40:27;;;;;;;40.20;30.40;;;19.20;99.90;;;19.43;61.87;101892.88;4969980;28;96883;-51
2021/06/06 06:42:55;;;;;;;42.70;33.40;;;19.20;99.90;;;19.40;62.09;101892.19;4988996;28;97032;-50
2021/06/06 06:45:29;;;;;;;40.47;32.90;;;19.20;99.90;;;19.43;61.94;101894.69;4963214;28;97828;-51
2021/06/06 06:48:05;;;;;;;40.93;33.40;;;19.20;99.90;;;19.48;61.41;101892.63;4959819;28;97853;-53
2021/06/06 06:50:32;;;;;;;48.07;35.47;;;19.30;99.90;;;19.41;62.56;101901.94;4980918;28;97615;-47
2021/06/06 06:53:00;;;;;;;51.47;35.50;;;19.20;99.90;;;19.37;62.41;101889.66;4962965;28;97146;-47
2021/06/06 06:55:26;;;;;;;46.37;34.60;;;19.10;99.90;;;19.31;62.67;101886.38;4964740;28;97773;-48
2021/06/06 06:57:55;;;;;;;46.13;35.50;;;19.00;99.90;;;19.28;62.92;101893.69;4967074;28;97140;-50
2021/06/06 07:00:27;;;;;;;46.27;35.47;;;19.00;99.90;;;19.31;63.16;101891.72;4968991;28;97359;-48
2021/06/06 07:02:53;;;;;;;46.30;35.40;;;19.00;99.90;;;19.31;62.61;101896.22;4966840;28;97354;-48
2021/06/06 07:05:19;;;;;;;43.60;33.83;;;19.00;99.90;;;19.36;62.87;101903.97;4969998;28;98173;-51
2021/06/06 07:07:45;;;;;;;46.27;35.03;;;19.00;99.90;;;19.42;62.17;101903.66;4982264;28;97005;-48
2021/06/06 07:10:16;;;;;;;43.77;34.03;;;19.10;99.90;;;19.46;61.57;101906.09;4969773;28;97600;-48
2021/06/06 07:12:42;;;;;;;47.80;33.40;;;19.10;99.90;;;19.49;61.95;101907.75;4977306;28;96835;-47
2021/06/06 07:15:11;;;;;;;44.17;33.37;;;19.20;99.90;;;19.51;61.80;101909.38;4969846;28;97119;-47
2021/06/06 07:17:38;;;;;;;47.07;34.20;;;19.20;99.90;;;19.52;62.21;101915.59;4979458;28;98475;-49
2021/06/06 07:20:08;;;;;;;49.27;35.17;;;19.20;99.90;;;19.53;61.65;101917.34;4974925;28;97866;-48
2021/06/06 07:22:35;;;;;;;41.83;33.33;;;19.10;99.90;;;19.44;62.94;101908.00;4977528;28;97256;-52
2021/06/06 07:25:01;;;;;;;45.83;34.07;;;19.10;99.90;;;19.55;61.84;101904.78;4966157;28;103127;-48
2021/06/06 07:27:27;;;;;;;43.10;33.97;;;19.20;99.90;;;19.53;61.52;101901.28;4984931;28;98248;-50
2021/06/06 07:29:53;;;;;;;42.80;32.90;;;19.20;99.90;;;19.48;63.37;101906.00;4981120;28;97521;-48
2021/06/06 07:32:21;;;;;;;45.13;34.70;;;19.10;99.90;;;19.35;64.39;101908.47;4965741;28;97057;-50
2021/06/06 07:34:47;;;;;;;45.47;35.03;;;19.00;99.90;;;19.41;62.68;101907.28;4969595;28;96712;-48
2021/06/06 07:37:14;;;;;;;47.03;35.47;;;19.00;99.90;;;19.33;62.54;101903.19;4967564;28;97101;-50
2021/06/06 07:39:41;;;;;;;35.27;27.97;;;18.90;99.90;;;19.41;62.12;101899.28;4956868;28;97005;-52
2021/06/06 07:42:10;;;;;;;53.20;37.60;;;19.00;99.90;;;19.40;63.08;101908.25;4969334;28;96957;-49
2021/06/06 07:44:36;;;;;;;47.27;35.73;;;19.00;99.90;;;19.47;61.98;101905.16;4961324;28;98410;-48
2021/06/06 07:47:07;;;;;;;47.23;36.03;;;19.10;99.90;;;19.58;61.68;101909.97;4985518;28;99116;-51
2021/06/06 07:49:34;;;;;;;50.23;36.07;;;19.20;99.90;;;19.58;61.75;101907.28;4971265;28;99828;-47
2021/06/06 07:52:00;;;;;;;36.37;29.13;;;19.30;99.90;;;19.61;61.29;101912.47;4971261;28;96874;-48
2021/06/06 07:54:27;;;;;;;44.57;35.97;;;19.20;99.90;;;19.66;61.08;101910.41;4971336;28;100094;-47
2021/06/06 07:56:53;;;;;;;45.83;35.57;;;19.30;99.90;;;19.63;62.07;101912.38;4965714;28;98385;-48
2021/06/06 07:59:19;;;;;;;43.23;35.33;;;19.40;99.90;;;19.64;62.13;101919.47;4947110;28;97058;-52
2021/06/06 08:01:47;;;;;;;50.67;34.77;;;19.40;99.90;;;19.67;62.38;101917.47;4959727;28;96730;-51
2021/06/06 08:04:13;;;;;;;51.67;37.37;;;19.30;99.90;;;19.71;61.07;101919.06;4947454;28;97640;-47
2021/06/06 08:06:39;;;;;;;51.07;37.70;;;19.30;99.90;;;19.69;61.95;101922.78;4955711;28;97021;-52
2021/06/06 08:09:05;;;;;;;32.00;24.47;;;19.40;99.90;;;19.72;60.81;101922.63;4981302;28;97162;-52
2021/06/06 08:11:33;;;;;;;53.03;38.20;;;19.40;99.90;;;19.77;60.90;101926.75;4979966;28;96713;-49
2021/06/06 08:13:59;;;;;;;36.50;28.70;;;19.40;99.90;;;19.82;60.33;101922.03;4959959;28;102818;-52
2021/06/06 08:16:25;;;;;;;16.87;14.90;;;19.50;99.90;;;19.85;60.45;101916.50;4975239;28;97178;-49
2021/06/06 08:18:51;;;;;;;51.60;38.27;;;19.50;99.90;;;19.84;61.65;101928.16;4979541;28;97086;-51
2021/06/06 08:21:22;;;;;;;56.27;40.90;;;19.50;99.90;;;19.88;60.50;101919.00;4970754;28;97151;-52
2021/06/06 08:23:48;;;;;;;62.03;42.50;;;19.50;99.90;;;19.85;60.30;101923.69;4949582;28;99208;-50
2021/06/06 08:26:18;;;;;;;61.83;43.10;;;19.50;99.90;;;19.83;60.51;101926.44;4977810;28;97061;-50
2021/06/06 08:28:45;;;;;;;52.30;38.53;;;19.40;99.90;;;19.84;60.92;101930.84;4968143;28;97163;-50
2021/06/06 08:31:16;;;;;;;52.40;37.43;;;19.50;99.90;;;19.87;60.28;101925.31;4966085;28;97447;-50
2021/06/06 08:33:43;;;;;;;53.20;38.23;;;19.60;99.90;;;19.89;60.04;101926.09;4960824;28;96806;-48
2021/06/06 08:36:27;;;;;;;46.27;35.43;;;19.60;99.90;;;19.92;60.29;101925.06;4968133;28;98928;-52
2021/06/06 08:38:55;;;;;;;54.50;35.97;;;19.70;99.90;;;19.88;60.42;101928.84;4960900;28;97442;-48
2021/06/06 08:41:26;;;;;;;49.37;36.87;;;19.60;99.90;;;19.84;61.00;101925.50;4981262;28;97369;-50
2021/06/06 08:44:09;;;;;;;47.37;36.40;;;19.60;99.90;;;19.77;60.82;101921.41;4972626;28;97158;-53
2021/06/06 08:46:43;;;;;;;55.83;38.63;;;19.40;99.90;;;19.70;61.15;101925.38;4961693;28;98244;-57
2021/06/06 08:49:10;;;;;;;54.27;37.97;;;19.50;99.90;;;19.66;61.35;101923.78;4954323;28;96904;-50
2021/06/06 08:51:42;;;;;;;57.67;39.00;;;19.40;99.90;;;19.70;60.89;101920.03;4966867;28;97102;-50
2021/06/06 08:54:32;;;;;;;51.90;38.40;;;19.50;99.90;;;19.66;61.38;101929.13;4975662;28;97428;-50
2021/06/06 08:57:05;;;;;;;51.43;36.60;;;19.50;99.90;;;19.63;61.26;101929.31;4979834;28;96809;-48
2021/06/06 08:59:42;;;;;;;52.43;36.27;;;19.40;99.90;;;19.52;61.96;101932.53;4980379;28;96611;-49
2021/06/06 09:02:40;;;;;;;50.47;35.60;;;19.20;99.90;;;19.61;60.90;101933.88;4963767;28;97286;-47
2021/06/06 09:05:09;;;;;;;47.37;35.20;;;19.30;99.90;;;19.58;61.43;101931.38;4950084;28;100609;-49
2021/06/06 09:07:42;;;;;;;56.80;36.80;;;19.30;99.90;;;19.60;61.68;101929.47;4965893;28;97337;-57
2021/06/06 09:10:25;;;;;;;54.87;36.07;;;19.30;99.90;;;19.54;61.67;101933.34;4981315;28;97199;-52
2021/06/06 09:12:51;;;;;;;53.07;33.97;;;19.20;99.90;;;19.52;62.22;101939.69;4960546;28;97299;-50
2021/06/06 09:15:22;;;;;;;29.47;23.47;;;19.20;99.90;;;19.47;62.59;101936.41;4963797;28;97026;-49
2021/06/06 09:17:56;;;;;;;57.40;36.20;;;19.10;99.90;;;19.45;62.37;101939.16;4958680;28;97340;-51
2021/06/06 09:20:36;;;;;;;57.20;37.93;;;19.10;99.90;;;19.46;62.68;101945.38;4959237;28;97627;-50
2021/06/06 09:23:23;;;;;;;59.40;37.97;;;19.20;99.90;;;19.40;62.25;101943.91;4960345;28;98744;-47
2021/06/06 09:26:18;;;;;;;27.30;20.87;;;19.00;99.90;;;19.45;61.79;101941.84;4975265;28;97177;-51
2021/06/06 09:29:24;;;;;;;56.53;37.47;;;19.10;99.90;;;19.41;63.12;101944.75;4981823;28;99399;-49
2021/06/06 09:31:50;;;;;;;62.37;39.77;;;19.10;99.90;;;19.32;63.80;101949.63;4961099;28;97371;-50
2021/06/06 09:34:23;;;;;;;59.43;38.13;;;19.00;99.90;;;19.32;62.65;101940.75;4972021;28;96911;-48
2021/06/06 09:37:12;;;;;;;67.17;39.30;;;18.90;99.90;;;19.26;63.55;101946.41;4965115;28;97532;-51
2021/06/06 09:39:45;;;;;;;60.97;40.27;;;18.90;99.90;;;19.27;62.74;101942.78;4969059;28;96907;-50
2021/06/06 09:42:34;;;;;;;61.13;38.57;;;18.90;99.90;;;19.32;62.44;101936.25;4982821;28;97087;-48
2021/06/06 09:45:12;;;;;;;60.60;40.13;;;18.90;99.90;;;19.26;64.05;101925.88;4969213;28;97338;-48
2021/06/06 09:47:38;;;;;;;58.30;38.40;;;18.90;99.90;;;19.31;62.99;101929.16;4962650;28;97288;-47
2021/06/06 09:50:19;;;;;;;64.47;43.20;;;19.00;99.90;;;19.32;62.57;101941.59;4971174;28;102975;-51
2021/06/06 09:52:47;;;;;;;68.43;47.20;;;19.00;99.90;;;19.30;62.46;101943.50;4959019;28;97555;-49
2021/06/06 09:55:29;;;;;;;73.93;48.50;;;19.00;99.90;;;19.38;62.03;101944.88;4974877;28;96985;-47
2021/06/06 09:58:33;;;;;;;75.00;49.80;;;19.20;99.90;;;19.43;61.69;101942.88;4950960;28;99926;-48
2021/06/06 10:01:32;;;;;;;80.33;50.33;;;19.20;99.90;;;19.46;61.36;101943.56;4950378;28;96901;-50
2021/06/06 10:04:16;;;;;;;85.13;55.80;;;19.20;99.90;;;19.37;62.04;101949.38;4943238;28;97323;-51
2021/06/06 10:06:43;;;;;;;89.50;57.43;;;19.20;99.90;;;19.32;62.28;101946.09;4937560;28;97112;-49
2021/06/06 10:09:18;;;;;;;88.97;59.23;;;19.10;99.90;;;19.34;62.81;101949.53;4930716;28;98564;-49
2021/06/06 10:12:05;;;;;;;81.53;54.03;;;19.00;99.90;;;19.39;62.87;101957.34;4962141;28;96836;-49
2021/06/06 10:15:14;;;;;;;56.43;40.00;;;19.10;99.90;;;19.33;63.15;101955.84;4969212;28;97703;-48
2021/06/06 10:17:52;;;;;;;72.10;48.83;;;19.00;99.90;;;19.36;62.30;101957.50;4957725;28;97025;-47
2021/06/06 10:20:42;;;;;;;68.60;44.63;;;19.10;99.90;;;19.37;62.46;101959.22;4964308;28;97631;-49